createdAt,value
2022-09-14T00:00:33.250Z,0.00
2022-09-14T00:01:33.307Z,0.00
2022-09-14T00:02:33.382Z,0.00
2022-09-14T00:03:33.249Z,0.00
2022-09-14T00:04:33.219Z,0.00
2022-09-14T00:05:33.203Z,0.00
2022-09-14T00:06:33.202Z,0.00
2022-09-14T00:07:33.183Z,0.00
2022-09-14T00:08:33.170Z,0.00
2022-09-14T00:09:33.148Z,0.00
2022-09-14T00:10:33.132Z,0.00
2022-09-14T00:11:33.119Z,0.00
2022-09-14T00:12:33.143Z,0.00
2022-09-14T00:13:33.104Z,0.00
2022-09-14T00:14:33.093Z,0.00
2022-09-14T00:15:33.093Z,0.00
2022-09-14T00:16:33.151Z,0.00
2022-09-14T00:17:33.064Z,0.00
2022-09-14T00:18:33.064Z,0.00
2022-09-14T00:19:33.055Z,0.00
2022-09-14T00:20:33.046Z,0.00
2022-09-14T00:21:33.035Z,0.00
2022-09-14T00:22:33.025Z,0.00
2022-09-14T00:23:32.986Z,0.00
2022-09-14T00:24:32.996Z,0.00
2022-09-14T00:25:32.986Z,0.00
2022-09-14T00:26:32.968Z,0.00
2022-09-14T00:27:32.965Z,0.00
2022-09-14T00:28:32.967Z,0.00
2022-09-14T00:29:32.937Z,0.00
2022-09-14T00:30:32.937Z,0.00
2022-09-14T00:31:32.958Z,0.00
2022-09-14T00:32:32.918Z,0.00
2022-09-14T00:33:32.907Z,0.00
2022-09-14T00:34:32.896Z,0.00
2022-09-14T00:35:32.860Z,0.00
2022-09-14T00:36:32.870Z,0.00
2022-09-14T00:37:32.850Z,0.00
2022-09-14T00:38:32.850Z,0.00
2022-09-14T00:39:32.821Z,0.00
2022-09-14T00:40:32.908Z,0.00
2022-09-14T00:41:32.815Z,0.00
2022-09-14T00:42:32.791Z,0.00
2022-09-14T00:43:32.782Z,0.00
2022-09-14T00:44:32.772Z,0.00
2022-09-14T00:45:32.810Z,0.00
2022-09-14T00:46:32.743Z,0.00
2022-09-14T00:47:32.740Z,0.00
2022-09-14T00:48:32.740Z,0.00
2022-09-14T00:49:32.703Z,0.00
2022-09-14T00:50:32.704Z,0.00
2022-09-14T00:51:32.683Z,0.00
2022-09-14T00:52:32.703Z,0.00
2022-09-14T00:53:32.694Z,0.00
2022-09-14T00:54:32.693Z,0.00
2022-09-14T00:55:32.647Z,0.00
2022-09-14T00:56:32.637Z,0.00
2022-09-14T00:57:32.623Z,0.00
2022-09-14T00:58:32.624Z,0.00
2022-09-14T00:59:32.616Z,0.00
2022-09-14T01:00:32.626Z,0.00
2022-09-14T01:01:32.627Z,0.00
2022-09-14T01:02:32.642Z,0.00
2022-09-14T01:03:32.574Z,0.00
2022-09-14T01:04:32.567Z,0.00
2022-09-14T01:05:32.565Z,0.00
2022-09-14T01:06:32.536Z,0.00
2022-09-14T01:07:32.548Z,0.00
2022-09-14T01:08:32.527Z,0.00
2022-09-14T01:09:32.490Z,0.00
2022-09-14T01:10:32.491Z,0.00
2022-09-14T01:11:32.480Z,0.00
2022-09-14T01:12:32.468Z,0.00
2022-09-14T01:13:32.459Z,0.00
2022-09-14T01:14:32.461Z,0.00
2022-09-14T01:15:32.446Z,0.00
2022-09-14T01:16:32.484Z,0.00
2022-09-14T01:17:32.420Z,0.00
2022-09-14T01:18:32.402Z,0.00
2022-09-14T01:19:32.391Z,0.00
2022-09-14T01:20:32.383Z,0.00
2022-09-14T01:21:32.374Z,0.00
2022-09-14T01:22:32.372Z,0.00
2022-09-14T01:23:32.343Z,0.00
2022-09-14T01:24:32.342Z,0.00
2022-09-14T01:25:32.334Z,0.00
2022-09-14T01:26:32.374Z,0.00
2022-09-14T01:27:32.306Z,0.00
2022-09-14T01:28:32.312Z,0.00
2022-09-14T01:29:32.273Z,0.00
2022-09-14T01:30:32.285Z,0.00
2022-09-14T01:31:32.310Z,0.00
2022-09-14T01:32:32.262Z,0.00
2022-09-14T01:33:32.243Z,0.00
2022-09-14T01:34:32.235Z,0.00
2022-09-14T01:35:32.216Z,0.00
2022-09-14T01:36:32.196Z,0.00
2022-09-14T01:37:32.216Z,0.00
2022-09-14T01:38:32.199Z,0.00
2022-09-14T01:39:32.177Z,0.00
2022-09-14T01:40:32.186Z,0.00
2022-09-14T01:41:32.147Z,0.00
2022-09-14T01:42:32.128Z,0.00
2022-09-14T01:43:36.167Z,0.00
2022-09-14T01:44:32.119Z,0.00
2022-09-14T01:45:32.136Z,0.00
2022-09-14T01:46:32.080Z,0.00
2022-09-14T01:47:32.093Z,0.00
2022-09-14T01:48:32.094Z,0.00
2022-09-14T01:49:32.060Z,0.00
2022-09-14T01:50:32.064Z,0.00
2022-09-14T01:51:32.076Z,0.00
2022-09-14T01:52:32.035Z,0.00
2022-09-14T01:53:32.033Z,0.00
2022-09-14T01:54:32.026Z,0.00
2022-09-14T01:55:32.005Z,0.00
2022-09-14T01:56:32.555Z,0.00
2022-09-14T01:57:31.985Z,0.00
2022-09-14T01:58:31.987Z,0.00
2022-09-14T01:59:31.968Z,0.00
2022-09-14T02:00:32.037Z,0.00
2022-09-14T02:01:31.947Z,0.00
2022-09-14T02:02:31.998Z,0.00
2022-09-14T02:03:31.926Z,0.00
2022-09-14T02:04:31.916Z,0.00
2022-09-14T02:05:31.882Z,0.00
2022-09-14T02:06:31.888Z,0.00
2022-09-14T02:07:31.851Z,0.00
2022-09-14T02:08:31.891Z,0.00
2022-09-14T02:09:31.860Z,0.00
2022-09-14T02:10:31.830Z,0.00
2022-09-14T02:11:31.841Z,0.00
2022-09-14T02:12:31.829Z,0.00
2022-09-14T02:13:31.829Z,0.00
2022-09-14T02:14:31.831Z,0.00
2022-09-14T02:15:31.808Z,0.00
2022-09-14T02:16:31.885Z,0.00
2022-09-14T02:17:31.760Z,0.00
2022-09-14T02:18:31.770Z,0.00
2022-09-14T02:19:31.741Z,0.00
2022-09-14T02:20:31.759Z,0.00
2022-09-14T02:21:31.731Z,0.00
2022-09-14T02:22:31.732Z,0.00
2022-09-14T02:23:31.694Z,0.00
2022-09-14T02:24:31.670Z,0.00
2022-09-14T02:25:31.693Z,0.00
2022-09-14T02:26:31.691Z,0.00
2022-09-14T02:27:31.663Z,0.00
2022-09-14T02:28:31.664Z,0.00
2022-09-14T02:29:31.645Z,0.00
2022-09-14T02:30:31.633Z,0.00
2022-09-14T02:31:31.677Z,0.00
2022-09-14T02:32:31.634Z,0.00
2022-09-14T02:33:31.595Z,0.00
2022-09-14T02:34:31.559Z,0.00
2022-09-14T02:35:31.556Z,0.00
2022-09-14T02:36:31.576Z,0.00
2022-09-14T02:37:31.556Z,0.00
2022-09-14T02:38:31.575Z,0.00
2022-09-14T02:39:31.501Z,0.00
2022-09-14T02:40:31.595Z,0.00
2022-09-14T02:41:31.510Z,0.00
2022-09-14T02:42:31.517Z,0.00
2022-09-14T02:43:31.464Z,0.00
2022-09-14T02:44:31.488Z,0.00
2022-09-14T02:45:31.469Z,0.00
2022-09-14T02:46:31.499Z,0.00
2022-09-14T02:47:31.468Z,0.00
2022-09-14T02:48:31.416Z,0.00
2022-09-14T02:49:31.439Z,0.00
2022-09-14T02:50:31.438Z,0.00
2022-09-14T02:51:31.410Z,0.00
2022-09-14T02:52:31.374Z,0.00
2022-09-14T02:53:31.400Z,0.00
2022-09-14T02:54:31.394Z,0.00
2022-09-14T02:55:31.369Z,0.00
2022-09-14T02:56:31.337Z,0.00
2022-09-14T02:57:31.314Z,0.00
2022-09-14T02:58:31.330Z,0.00
2022-09-14T02:59:31.353Z,0.00
2022-09-14T03:00:31.385Z,0.00
2022-09-14T03:01:31.352Z,0.00
2022-09-14T03:02:31.304Z,0.00
2022-09-14T03:03:35.486Z,0.00
2022-09-14T03:04:31.258Z,0.00
2022-09-14T03:05:31.230Z,0.00
2022-09-14T03:06:31.259Z,0.00
2022-09-14T03:07:31.224Z,0.00
2022-09-14T03:08:31.241Z,0.00
2022-09-14T03:09:31.227Z,0.00
2022-09-14T03:10:31.225Z,0.00
2022-09-14T03:11:31.185Z,0.00
2022-09-14T03:12:31.192Z,0.00
2022-09-14T03:13:31.185Z,0.00
2022-09-14T03:14:31.176Z,0.00
2022-09-14T03:15:31.170Z,0.00
2022-09-14T03:16:31.203Z,0.00
2022-09-14T03:17:31.127Z,0.00
2022-09-14T03:18:31.113Z,0.00
2022-09-14T03:19:31.126Z,0.00
2022-09-14T03:20:31.108Z,0.00
2022-09-14T03:21:31.088Z,0.00
2022-09-14T03:22:31.080Z,0.00
2022-09-14T03:23:31.079Z,0.00
2022-09-14T03:24:31.043Z,0.00
2022-09-14T03:25:31.059Z,0.00
2022-09-14T03:26:31.004Z,0.00
2022-09-14T03:27:31.029Z,0.00
2022-09-14T03:28:31.039Z,0.00
2022-09-14T03:29:30.999Z,0.00
2022-09-14T03:30:30.988Z,0.00
2022-09-14T03:31:31.006Z,0.00
2022-09-14T03:32:30.955Z,0.00
2022-09-14T03:33:30.978Z,0.00
2022-09-14T03:34:30.970Z,0.00
2022-09-14T03:35:30.931Z,0.00
2022-09-14T03:36:30.979Z,0.00
2022-09-14T03:37:30.930Z,0.00
2022-09-14T03:38:30.905Z,0.00
2022-09-14T03:39:30.902Z,0.00
2022-09-14T03:40:31.022Z,0.00
2022-09-14T03:41:30.896Z,0.00
2022-09-14T03:42:30.872Z,0.00
2022-09-14T03:43:30.864Z,0.00
2022-09-14T03:44:30.854Z,0.00
2022-09-14T03:45:30.825Z,0.00
2022-09-14T03:46:30.888Z,0.00
2022-09-14T03:47:30.825Z,0.00
2022-09-14T03:48:30.835Z,0.00
2022-09-14T03:49:30.777Z,0.00
2022-09-14T03:50:30.750Z,0.00
2022-09-14T03:51:30.765Z,0.00
2022-09-14T03:52:30.767Z,0.00
2022-09-14T03:53:30.766Z,0.00
2022-09-14T03:54:30.746Z,0.00
2022-09-14T03:55:30.704Z,0.00
2022-09-14T03:56:30.717Z,0.00
2022-09-14T03:57:30.699Z,0.00
2022-09-14T03:58:30.705Z,0.00
2022-09-14T03:59:30.715Z,0.00
2022-09-14T04:00:30.668Z,0.00
2022-09-14T04:01:30.678Z,0.00
2022-09-14T04:02:30.751Z,0.00
2022-09-14T04:03:30.603Z,0.00
2022-09-14T04:04:30.650Z,0.00
2022-09-14T04:05:30.642Z,0.00
2022-09-14T04:06:30.595Z,0.00
2022-09-14T04:07:30.600Z,0.00
2022-09-14T04:08:30.592Z,0.00
2022-09-14T04:09:30.579Z,0.00
2022-09-14T04:10:30.568Z,0.00
2022-09-14T04:11:30.571Z,0.00
2022-09-14T04:12:30.552Z,0.00
2022-09-14T04:13:30.541Z,0.00
2022-09-14T04:14:30.509Z,0.00
2022-09-14T04:15:30.512Z,0.00
2022-09-14T04:16:30.548Z,0.00
2022-09-14T04:17:30.475Z,0.00
2022-09-14T04:18:30.475Z,0.00
2022-09-14T04:19:30.486Z,0.00
2022-09-14T04:20:30.463Z,0.00
2022-09-14T04:21:30.442Z,0.00
2022-09-14T04:22:30.444Z,0.00
2022-09-14T04:23:30.432Z,0.00
2022-09-14T04:24:31.020Z,0.00
2022-09-14T04:25:30.415Z,0.00
2022-09-14T04:26:30.395Z,0.00
2022-09-14T04:27:30.367Z,0.00
2022-09-14T04:28:30.373Z,0.00
2022-09-14T04:29:30.367Z,0.00
2022-09-14T04:30:30.349Z,0.00
2022-09-14T04:31:30.522Z,0.00
2022-09-14T04:32:34.179Z,0.00
2022-09-14T04:33:30.329Z,0.00
2022-09-14T04:34:30.316Z,0.00
2022-09-14T04:35:30.287Z,0.00
2022-09-14T04:36:30.278Z,0.00
2022-09-14T04:37:30.278Z,0.00
2022-09-14T04:38:30.802Z,0.00
2022-09-14T04:39:30.264Z,0.00
2022-09-14T04:40:30.268Z,0.00
2022-09-14T04:41:30.221Z,0.00
2022-09-14T04:42:30.237Z,0.00
2022-09-14T04:43:30.211Z,0.00
2022-09-14T04:44:30.178Z,0.00
2022-09-14T04:45:30.179Z,0.00
2022-09-14T04:46:30.252Z,0.00
2022-09-14T04:47:30.180Z,0.00
2022-09-14T04:48:30.161Z,0.00
2022-09-14T04:49:30.152Z,0.00
2022-09-14T04:50:30.138Z,0.00
2022-09-14T04:51:30.123Z,0.00
2022-09-14T04:52:30.111Z,0.00
2022-09-14T04:53:30.075Z,0.00
2022-09-14T04:54:30.123Z,0.00
2022-09-14T04:55:30.057Z,0.00
2022-09-14T04:56:30.058Z,0.00
2022-09-14T04:57:30.054Z,0.00
2022-09-14T04:58:30.054Z,0.00
2022-09-14T04:59:30.044Z,0.00
2022-09-14T05:00:30.024Z,0.00
2022-09-14T05:01:30.039Z,0.00
2022-09-14T05:02:30.073Z,0.00
2022-09-14T05:03:30.015Z,0.00
2022-09-14T05:04:29.994Z,0.00
2022-09-14T05:05:29.955Z,0.00
2022-09-14T05:06:29.956Z,0.00
2022-09-14T05:07:29.967Z,0.00
2022-09-14T05:08:29.948Z,0.00
2022-09-14T05:09:29.948Z,0.00
2022-09-14T05:10:29.917Z,0.00
2022-09-14T05:11:29.890Z,0.00
2022-09-14T05:12:29.999Z,0.00
2022-09-14T05:13:29.878Z,0.00
2022-09-14T05:14:29.898Z,0.00
2022-09-14T05:15:29.868Z,0.00
2022-09-14T05:16:29.951Z,0.00
2022-09-14T05:17:29.822Z,0.00
2022-09-14T05:18:29.869Z,0.00
2022-09-14T05:19:29.827Z,5.62
2022-09-14T05:20:29.783Z,11.25
2022-09-14T05:21:29.810Z,16.88
2022-09-14T05:22:29.811Z,11.25
2022-09-14T05:23:29.871Z,11.25
2022-09-14T05:24:29.780Z,16.88
2022-09-14T05:25:29.767Z,28.12
2022-09-14T05:26:29.771Z,28.12
2022-09-14T05:27:29.762Z,22.50
2022-09-14T05:28:29.695Z,22.50
2022-09-14T05:29:29.745Z,33.75
2022-09-14T05:30:29.686Z,39.38
2022-09-14T05:31:29.811Z,45.00
2022-09-14T05:32:29.722Z,45.00
2022-09-14T05:33:29.663Z,39.38
2022-09-14T05:34:29.762Z,45.00
2022-09-14T05:35:30.062Z,45.00
2022-09-14T05:36:29.675Z,45.00
2022-09-14T05:37:29.665Z,39.38
2022-09-14T05:38:29.630Z,39.38
2022-09-14T05:39:29.635Z,39.38
2022-09-14T05:40:29.678Z,39.38
2022-09-14T05:41:29.585Z,39.38
2022-09-14T05:42:29.575Z,39.38
2022-09-14T05:43:29.571Z,45.00
2022-09-14T05:44:29.554Z,50.62
2022-09-14T05:45:29.532Z,50.62
2022-09-14T05:46:29.566Z,56.25
2022-09-14T05:47:29.538Z,56.25
2022-09-14T05:48:29.516Z,61.88
2022-09-14T05:49:29.517Z,61.88
2022-09-14T05:50:29.514Z,61.88
2022-09-14T05:51:29.481Z,61.88
2022-09-14T05:52:29.461Z,61.88
2022-09-14T05:53:29.478Z,56.25
2022-09-14T05:54:29.478Z,56.25
2022-09-14T05:55:29.446Z,61.88
2022-09-14T05:56:29.437Z,67.50
2022-09-14T05:57:29.425Z,73.12
2022-09-14T05:58:29.421Z,78.75
2022-09-14T05:59:29.419Z,84.38
2022-09-14T06:00:29.374Z,90.00
2022-09-14T06:01:29.459Z,95.62
2022-09-14T06:02:29.360Z,95.62
2022-09-14T06:03:29.377Z,95.62
2022-09-14T06:04:29.351Z,101.25
2022-09-14T06:05:29.358Z,106.88
2022-09-14T06:06:29.350Z,106.88
2022-09-14T06:07:29.303Z,106.88
2022-09-14T06:08:29.292Z,106.88
2022-09-14T06:09:33.086Z,112.50
2022-09-14T06:10:29.266Z,112.50
2022-09-14T06:11:29.273Z,112.50
2022-09-14T06:12:29.273Z,112.50
2022-09-14T06:13:29.309Z,112.50
2022-09-14T06:14:29.235Z,118.12
2022-09-14T06:15:29.228Z,123.75
2022-09-14T06:16:29.266Z,123.75
2022-09-14T06:17:29.242Z,129.38
2022-09-14T06:18:30.658Z,129.38
2022-09-14T06:19:29.187Z,135.00
2022-09-14T06:20:30.357Z,135.00
2022-09-14T06:21:29.176Z,140.62
2022-09-14T06:22:29.865Z,140.62
2022-09-14T06:23:29.162Z,140.62
2022-09-14T06:24:30.148Z,140.62
2022-09-14T06:25:29.157Z,140.62
2022-09-14T06:26:30.729Z,140.62
2022-09-14T06:27:29.124Z,146.25
2022-09-14T06:28:30.121Z,146.25
2022-09-14T06:29:29.062Z,140.62
2022-09-14T06:30:29.837Z,140.62
2022-09-14T06:31:29.069Z,146.25
2022-09-14T06:32:29.107Z,146.25
2022-09-14T06:33:29.039Z,151.88
2022-09-14T06:34:29.004Z,163.12
2022-09-14T06:35:29.010Z,163.12
2022-09-14T06:36:28.998Z,168.75
2022-09-14T06:37:29.010Z,168.75
2022-09-14T06:38:28.981Z,168.75
2022-09-14T06:39:28.963Z,168.75
2022-09-14T06:40:28.997Z,168.75
2022-09-14T06:41:28.966Z,163.12
2022-09-14T06:42:28.943Z,163.12
2022-09-14T06:43:28.926Z,168.75
2022-09-14T06:44:28.923Z,168.75
2022-09-14T06:45:28.935Z,163.12
2022-09-14T06:46:28.892Z,151.88
2022-09-14T06:47:28.855Z,151.88
2022-09-14T06:48:28.904Z,146.25
2022-09-14T06:49:28.863Z,146.25
2022-09-14T06:50:28.834Z,146.25
2022-09-14T06:51:28.856Z,151.88
2022-09-14T06:52:33.554Z,157.50
2022-09-14T06:53:29.815Z,168.75
2022-09-14T06:54:28.815Z,185.62
2022-09-14T06:55:28.824Z,191.25
2022-09-14T06:56:28.776Z,196.88
2022-09-14T06:57:28.765Z,196.88
2022-09-14T06:58:28.767Z,202.50
2022-09-14T06:59:28.762Z,202.50
2022-09-14T07:00:28.701Z,202.50
2022-09-14T07:01:28.741Z,208.12
2022-09-14T07:02:28.900Z,219.38
2022-09-14T07:03:28.747Z,225.00
2022-09-14T07:04:28.689Z,230.62
2022-09-14T07:05:28.717Z,236.25
2022-09-14T07:06:28.670Z,236.25
2022-09-14T07:07:28.661Z,236.25
2022-09-14T07:08:28.660Z,236.25
2022-09-14T07:09:28.643Z,230.62
2022-09-14T07:10:28.594Z,225.00
2022-09-14T07:11:28.630Z,219.38
2022-09-14T07:12:28.610Z,219.38
2022-09-14T07:13:28.602Z,219.38
2022-09-14T07:14:32.241Z,219.38
2022-09-14T07:15:28.592Z,219.38
2022-09-14T07:16:28.576Z,213.75
2022-09-14T07:17:28.544Z,202.50
2022-09-14T07:18:28.532Z,191.25
2022-09-14T07:19:28.542Z,191.25
2022-09-14T07:20:28.539Z,191.25
2022-09-14T07:21:28.509Z,185.62
2022-09-14T07:22:28.482Z,185.62
2022-09-14T07:23:28.483Z,185.62
2022-09-14T07:24:28.446Z,180.00
2022-09-14T07:25:28.524Z,168.75
2022-09-14T07:26:28.434Z,168.75
2022-09-14T07:27:28.434Z,163.12
2022-09-14T07:28:28.446Z,168.75
2022-09-14T07:29:28.417Z,168.75
2022-09-14T07:30:28.455Z,168.75
2022-09-14T07:31:28.523Z,163.12
2022-09-14T07:32:28.349Z,163.12
2022-09-14T07:33:28.366Z,163.12
2022-09-14T07:34:28.359Z,163.12
2022-09-14T07:35:28.346Z,163.12
2022-09-14T07:36:31.587Z,163.12
2022-09-14T07:37:29.314Z,163.12
2022-09-14T07:38:48.576Z,157.50
2022-09-14T07:39:29.987Z,157.50
2022-09-14T07:40:28.414Z,157.50
2022-09-14T07:41:28.991Z,157.50
2022-09-14T07:42:28.283Z,168.75
2022-09-14T07:43:28.969Z,180.00
2022-09-14T07:44:28.262Z,191.25
2022-09-14T07:45:28.520Z,202.50
2022-09-14T07:46:28.321Z,219.38
2022-09-14T07:47:29.280Z,236.25
2022-09-14T07:48:28.241Z,241.88
2022-09-14T07:49:28.930Z,264.38
2022-09-14T07:50:28.197Z,270.00
2022-09-14T07:51:28.281Z,264.38
2022-09-14T07:52:28.182Z,253.12
2022-09-14T07:53:28.362Z,236.25
2022-09-14T07:54:28.172Z,219.38
2022-09-14T07:55:28.155Z,196.88
2022-09-14T07:56:28.131Z,191.25
2022-09-14T07:57:52.293Z,196.88
2022-09-14T07:58:29.111Z,191.25
2022-09-14T07:59:36.935Z,191.25
2022-09-14T08:00:29.064Z,185.62
2022-09-14T08:01:28.092Z,185.62
2022-09-14T08:02:28.148Z,196.88
2022-09-14T08:03:28.046Z,213.75
2022-09-14T08:04:28.055Z,241.88
2022-09-14T08:05:28.033Z,270.00
2022-09-14T08:06:28.006Z,264.38
2022-09-14T08:07:28.024Z,247.50
2022-09-14T08:08:28.009Z,230.62
2022-09-14T08:09:27.997Z,253.12
2022-09-14T08:10:27.976Z,264.38
2022-09-14T08:11:27.947Z,258.75
2022-09-14T08:12:27.958Z,258.75
2022-09-14T08:13:27.957Z,286.88
2022-09-14T08:14:27.949Z,298.12
2022-09-14T08:15:28.737Z,298.12
2022-09-14T08:16:27.961Z,292.50
2022-09-14T08:17:27.920Z,281.25
2022-09-14T08:18:27.881Z,309.38
2022-09-14T08:19:27.870Z,331.88
2022-09-14T08:20:27.846Z,354.38
2022-09-14T08:21:27.850Z,365.62
2022-09-14T08:22:27.850Z,365.62
2022-09-14T08:23:27.839Z,365.62
2022-09-14T08:24:27.840Z,365.62
2022-09-14T08:25:27.801Z,348.75
2022-09-14T08:26:27.782Z,337.50
2022-09-14T08:27:27.829Z,343.12
2022-09-14T08:28:27.772Z,343.12
2022-09-14T08:29:27.791Z,348.75
2022-09-14T08:30:27.737Z,348.75
2022-09-14T08:31:27.787Z,348.75
2022-09-14T08:32:27.763Z,365.62
2022-09-14T08:33:27.734Z,382.50
2022-09-14T08:34:27.735Z,393.75
2022-09-14T08:35:56.145Z,388.12
2022-09-14T08:36:28.674Z,354.38
2022-09-14T08:37:27.695Z,315.00
2022-09-14T08:38:27.706Z,292.50
2022-09-14T08:39:27.687Z,275.62
2022-09-14T08:40:27.721Z,247.50
2022-09-14T08:41:27.626Z,247.50
2022-09-14T08:42:27.616Z,253.12
2022-09-14T08:43:27.627Z,275.62
2022-09-14T08:44:27.627Z,292.50
2022-09-14T08:45:27.637Z,326.25
2022-09-14T08:46:27.578Z,365.62
2022-09-14T08:47:27.587Z,388.12
2022-09-14T08:48:27.554Z,393.75
2022-09-14T08:49:27.620Z,393.75
2022-09-14T08:50:27.623Z,399.38
2022-09-14T08:51:27.632Z,393.75
2022-09-14T08:52:28.549Z,393.75
2022-09-14T08:53:27.557Z,405.00
2022-09-14T08:54:28.202Z,410.62
2022-09-14T08:55:27.520Z,438.75
2022-09-14T08:56:27.601Z,427.50
2022-09-14T08:57:27.445Z,444.38
2022-09-14T08:58:28.664Z,455.62
2022-09-14T08:59:27.435Z,433.12
2022-09-14T09:00:28.102Z,433.12
2022-09-14T09:01:27.467Z,433.12
2022-09-14T09:02:27.897Z,399.38
2022-09-14T09:03:27.502Z,337.50
2022-09-14T09:04:27.445Z,298.12
2022-09-14T09:05:27.394Z,208.12
2022-09-14T09:06:27.411Z,163.12
2022-09-14T09:07:27.362Z,180.00
2022-09-14T09:08:27.376Z,180.00
2022-09-14T09:09:27.373Z,185.62
2022-09-14T09:10:27.327Z,191.25
2022-09-14T09:11:27.449Z,196.88
2022-09-14T09:12:27.297Z,185.62
2022-09-14T09:13:27.316Z,185.62
2022-09-14T09:14:27.276Z,180.00
2022-09-14T09:15:27.278Z,185.62
2022-09-14T09:16:27.319Z,191.25
2022-09-14T09:17:27.246Z,196.88
2022-09-14T09:18:27.258Z,196.88
2022-09-14T09:19:28.829Z,208.12
2022-09-14T09:20:27.202Z,202.50
2022-09-14T09:21:27.199Z,241.88
2022-09-14T09:22:27.192Z,281.25
2022-09-14T09:23:27.209Z,298.12
2022-09-14T09:24:27.161Z,331.88
2022-09-14T09:25:27.181Z,376.88
2022-09-14T09:26:27.152Z,427.50
2022-09-14T09:27:27.139Z,472.50
2022-09-14T09:28:27.118Z,556.88
2022-09-14T09:29:27.122Z,579.38
2022-09-14T09:30:27.096Z,556.88
2022-09-14T09:31:27.140Z,523.12
2022-09-14T09:32:27.104Z,545.62
2022-09-14T09:33:27.092Z,568.12
2022-09-14T09:34:27.062Z,585.00
2022-09-14T09:35:27.071Z,540.00
2022-09-14T09:36:27.584Z,483.75
2022-09-14T09:37:27.044Z,500.62
2022-09-14T09:38:27.034Z,438.75
2022-09-14T09:39:27.025Z,405.00
2022-09-14T09:40:27.069Z,331.88
2022-09-14T09:41:26.987Z,331.88
2022-09-14T09:42:27.009Z,343.12
2022-09-14T09:43:47.969Z,348.75
2022-09-14T09:44:27.976Z,388.12
2022-09-14T09:45:26.957Z,371.25
2022-09-14T09:46:26.981Z,348.75
2022-09-14T09:47:26.936Z,360.00
2022-09-14T09:48:26.908Z,348.75
2022-09-14T09:49:26.892Z,376.88
2022-09-14T09:50:26.917Z,433.12
2022-09-14T09:51:26.853Z,416.25
2022-09-14T09:52:26.890Z,315.00
2022-09-14T09:53:26.869Z,292.50
2022-09-14T09:54:26.871Z,315.00
2022-09-14T09:55:26.860Z,309.38
2022-09-14T09:56:26.831Z,309.38
2022-09-14T09:57:26.806Z,275.62
2022-09-14T09:58:26.841Z,298.12
2022-09-14T09:59:27.794Z,303.75
2022-09-14T10:00:26.867Z,309.38
2022-09-14T10:01:26.846Z,320.62
2022-09-14T10:02:26.871Z,331.88
2022-09-14T10:03:26.763Z,337.50
2022-09-14T10:04:26.753Z,348.75
2022-09-14T10:05:27.440Z,371.25
2022-09-14T10:06:26.724Z,371.25
2022-09-14T10:07:27.379Z,388.12
2022-09-14T10:08:26.704Z,399.38
2022-09-14T10:09:27.406Z,410.62
2022-09-14T10:10:26.694Z,421.88
2022-09-14T10:11:26.686Z,421.88
2022-09-14T10:12:26.645Z,416.25
2022-09-14T10:13:26.636Z,438.75
2022-09-14T10:14:26.676Z,461.25
2022-09-14T10:15:26.607Z,450.00
2022-09-14T10:16:26.650Z,444.38
2022-09-14T10:17:26.563Z,455.62
2022-09-14T10:18:26.620Z,455.62
2022-09-14T10:19:26.552Z,461.25
2022-09-14T10:20:26.596Z,466.88
2022-09-14T10:21:26.558Z,455.62
2022-09-14T10:22:26.857Z,455.62
2022-09-14T10:23:26.560Z,455.62
2022-09-14T10:24:26.530Z,472.50
2022-09-14T10:25:26.511Z,483.75
2022-09-14T10:26:26.520Z,523.12
2022-09-14T10:27:26.475Z,500.62
2022-09-14T10:28:26.509Z,511.88
2022-09-14T10:29:26.492Z,551.25
2022-09-14T10:30:26.466Z,562.50
2022-09-14T10:31:26.462Z,551.25
2022-09-14T10:32:26.454Z,585.00
2022-09-14T10:33:26.452Z,601.88
2022-09-14T10:34:26.414Z,613.12
2022-09-14T10:35:26.414Z,613.12
2022-09-14T10:36:26.378Z,579.38
2022-09-14T10:37:26.379Z,585.00
2022-09-14T10:38:26.685Z,596.25
2022-09-14T10:39:26.516Z,585.00
2022-09-14T10:40:26.394Z,585.00
2022-09-14T10:41:26.324Z,601.88
2022-09-14T10:42:26.348Z,596.25
2022-09-14T10:43:26.356Z,596.25
2022-09-14T10:44:26.310Z,579.38
2022-09-14T10:45:26.297Z,556.88
2022-09-14T10:46:26.340Z,545.62
2022-09-14T10:47:26.309Z,556.88
2022-09-14T10:48:26.339Z,590.62
2022-09-14T10:49:26.990Z,596.25
2022-09-14T10:50:26.299Z,590.62
2022-09-14T10:51:26.368Z,590.62
2022-09-14T10:52:26.260Z,579.38
2022-09-14T10:53:26.322Z,596.25
2022-09-14T10:54:26.264Z,590.62
2022-09-14T10:55:26.901Z,590.62
2022-09-14T10:56:26.204Z,590.62
2022-09-14T10:57:26.452Z,585.00
2022-09-14T10:58:26.183Z,573.75
2022-09-14T10:59:26.633Z,573.75
2022-09-14T11:00:26.193Z,579.38
2022-09-14T11:01:26.926Z,590.62
2022-09-14T11:02:26.232Z,585.00
2022-09-14T11:03:26.145Z,596.25
2022-09-14T11:04:26.116Z,590.62
2022-09-14T11:05:26.236Z,613.12
2022-09-14T11:06:26.135Z,613.12
2022-09-14T11:07:26.075Z,618.75
2022-09-14T11:08:26.038Z,624.38
2022-09-14T11:09:26.069Z,641.25
2022-09-14T11:10:26.083Z,652.50
2022-09-14T11:11:26.027Z,652.50
2022-09-14T11:12:26.699Z,680.62
2022-09-14T11:13:26.007Z,675.00
2022-09-14T11:14:26.958Z,691.88
2022-09-14T11:15:25.988Z,708.75
2022-09-14T11:16:26.068Z,691.88
2022-09-14T11:17:25.969Z,669.38
2022-09-14T11:18:25.940Z,686.25
2022-09-14T11:19:25.940Z,663.75
2022-09-14T11:20:25.928Z,652.50
2022-09-14T11:21:25.911Z,652.50
2022-09-14T11:22:25.942Z,663.75
2022-09-14T11:23:25.910Z,680.62
2022-09-14T11:24:25.894Z,663.75
2022-09-14T11:25:25.877Z,646.88
2022-09-14T11:26:25.882Z,562.50
2022-09-14T11:27:25.827Z,545.62
2022-09-14T11:28:25.873Z,590.62
2022-09-14T11:29:25.844Z,641.25
2022-09-14T11:30:25.800Z,748.12
2022-09-14T11:31:25.834Z,855.00
2022-09-14T11:32:25.812Z,765.00
2022-09-14T11:33:30.404Z,568.12
2022-09-14T11:34:26.776Z,450.00
2022-09-14T11:35:25.750Z,523.12
2022-09-14T11:36:25.777Z,663.75
2022-09-14T11:37:25.746Z,826.88
2022-09-14T11:38:25.749Z,894.38
2022-09-14T11:39:25.718Z,1018.12
2022-09-14T11:40:25.752Z,945.00
2022-09-14T11:41:25.693Z,990.00
2022-09-14T11:42:25.709Z,753.75
2022-09-14T11:43:25.740Z,753.75
2022-09-14T11:44:25.670Z,793.12
2022-09-14T11:45:25.731Z,916.88
2022-09-14T11:46:25.778Z,1063.12
2022-09-14T11:47:25.672Z,961.88
2022-09-14T11:48:42.247Z,871.88
2022-09-14T11:49:26.624Z,1001.25
2022-09-14T11:50:25.622Z,1074.38
2022-09-14T11:51:25.603Z,1012.50
2022-09-14T11:52:25.622Z,1023.75
2022-09-14T11:53:25.584Z,1012.50
2022-09-14T11:54:25.569Z,956.25
2022-09-14T11:55:25.556Z,1108.12
2022-09-14T11:56:25.555Z,888.75
2022-09-14T11:57:25.525Z,585.00
2022-09-14T11:58:25.534Z,506.25
2022-09-14T11:59:25.516Z,450.00
2022-09-14T12:00:25.516Z,455.62
2022-09-14T12:01:25.486Z,399.38
2022-09-14T12:02:25.487Z,427.50
2022-09-14T12:03:25.531Z,405.00
2022-09-14T12:04:25.457Z,371.25
2022-09-14T12:05:25.458Z,365.62
2022-09-14T12:06:25.453Z,388.12
2022-09-14T12:07:25.440Z,292.50
2022-09-14T12:08:25.458Z,253.12
2022-09-14T12:09:25.399Z,241.88
2022-09-14T12:10:25.401Z,241.88
2022-09-14T12:11:25.370Z,264.38
2022-09-14T12:12:25.392Z,303.75
2022-09-14T12:13:25.382Z,309.38
2022-09-14T12:14:25.371Z,309.38
2022-09-14T12:15:25.331Z,309.38
2022-09-14T12:16:25.347Z,292.50
2022-09-14T12:17:41.265Z,264.38
2022-09-14T12:18:26.315Z,264.38
2022-09-14T12:19:25.314Z,270.00
2022-09-14T12:20:25.293Z,303.75
2022-09-14T12:21:25.277Z,337.50
2022-09-14T12:22:25.265Z,354.38
2022-09-14T12:23:25.261Z,365.62
2022-09-14T12:24:25.246Z,388.12
2022-09-14T12:25:25.237Z,382.50
2022-09-14T12:26:25.224Z,365.62
2022-09-14T12:27:25.208Z,348.75
2022-09-14T12:28:25.216Z,326.25
2022-09-14T12:29:25.201Z,298.12
2022-09-14T12:30:25.206Z,292.50
2022-09-14T12:31:25.218Z,292.50
2022-09-14T12:32:25.163Z,281.25
2022-09-14T12:33:25.149Z,270.00
2022-09-14T12:34:25.161Z,264.38
2022-09-14T12:35:25.124Z,247.50
2022-09-14T12:36:25.120Z,219.38
2022-09-14T12:37:25.784Z,196.88
2022-09-14T12:38:25.131Z,168.75
2022-09-14T12:39:25.786Z,163.12
2022-09-14T12:40:25.170Z,146.25
2022-09-14T12:41:25.114Z,129.38
2022-09-14T12:42:25.544Z,123.75
2022-09-14T12:43:25.073Z,123.75
2022-09-14T12:44:25.043Z,112.50
2022-09-14T12:45:25.065Z,101.25
2022-09-14T12:46:25.829Z,90.00
2022-09-14T12:47:25.057Z,90.00
2022-09-14T12:48:25.705Z,90.00
2022-09-14T12:49:24.995Z,90.00